Allen, Oklahoma
Current Conditions -  °F | °C
As of 10:15 AM on Saturday 25 Oct 2014 (Local Time) from KADH Reporting Station
Clear Clear  
Wind Chill: 70°   Ceiling: Unl
Heat Index: 70°   Visibility: 10mi
Dew Point: 63°   Wind: 5mph
Humidity: 78%   Direction: 170°S
Pressure: 30.12"   Gusts: NA
Location:  34.88°N, 96.41°W
Report Text: KADH 251515Z AUTO 17004KT 10SM CLR 21/17 A3012 RMK AO2
Loading
Personal Weather Stations






























Interactive Weather Map
Tropical Storm Tracking
New forecast layout! Learn more

10-Day Weather Forecast

Advertisements
Track Severe Weather on mobile